Time;durP1;ratioP1;P1;durP2;ratioP2;P2;SDS_P1;SDS_P2;PMS_P1;PMS_P2;Temp;Humidity;BMP_temperature;BMP_pressure;BME280_temperature;BME280_humidity;BME280_pressure;Samples;Min_cycle;Max_cycle;Signal;HPM_P1;HPM_P2
2023/02/10 00:00:54;;;;;;;;;72.25;58.25;;;;;9.18;52.58;103156.50;2069447;27;46207;-65
2023/02/10 00:01:54;;;;;;;;;75.00;60.00;;;;;9.17;52.58;103158.25;2077259;27;46602;-65
2023/02/10 00:02:55;;;;;;;;;78.25;60.75;;;;;9.16;52.55;103159.13;2081387;27;46746;-64
2023/02/10 00:03:56;;;;;;;;;77.75;62.25;;;;;9.17;52.44;103152.06;2091507;27;45837;-64
2023/02/10 00:04:56;;;;;;;;;74.75;60.50;;;;;9.18;52.21;103151.19;2085410;27;46539;-63
2023/02/10 00:05:56;;;;;;;;;73.50;57.50;;;;;9.20;52.39;103157.41;2080363;27;46230;-63
2023/02/10 00:06:57;;;;;;;;;72.75;59.00;;;;;9.20;52.40;103153.00;2083211;27;46849;-63
2023/02/10 00:07:57;;;;;;;;;78.00;63.75;;;;;9.20;52.31;103150.38;2106182;27;46310;-63
2023/02/10 00:09:00;;;;;;;;;78.00;60.50;;;;;9.22;52.44;103155.69;2072191;27;46313;-63
2023/02/10 00:10:00;;;;;;;;;75.25;59.50;;;;;9.22;51.91;103147.75;2078578;27;46735;-63
2023/02/10 00:11:11;;;;;;;;;76.25;61.75;;;;;9.22;52.53;103155.69;2078929;27;46560;-62
2023/02/10 00:12:12;;;;;;;;;77.50;63.75;;;;;9.21;52.28;103141.56;2070344;27;47072;-63
2023/02/10 00:13:12;;;;;;;;;79.25;64.25;;;;;9.23;52.20;103154.84;2072423;27;45924;-63
2023/02/10 00:14:14;;;;;;;;;76.75;62.50;;;;;9.22;52.09;103156.59;2112951;27;46437;-62
2023/02/10 00:15:15;;;;;;;;;78.50;62.25;;;;;9.23;52.40;103154.84;2074952;27;46998;-63
2023/02/10 00:16:15;;;;;;;;;73.00;59.00;;;;;9.22;52.08;103153.03;2070118;27;46164;-64
2023/02/10 00:17:17;;;;;;;;;78.00;64.00;;;;;9.22;52.18;103156.59;2108612;27;46635;-63
2023/02/10 00:18:17;;;;;;;;;73.75;59.00;;;;;9.23;52.06;103157.47;2090320;27;47109;-62
2023/02/10 00:19:19;;;;;;;;;78.25;63.25;;;;;9.23;52.07;103154.84;2103529;27;46391;-62
2023/02/10 00:20:20;;;;;;;;;75.00;59.75;;;;;9.23;51.99;103153.06;2075540;27;46646;-64
2023/02/10 00:21:20;;;;;;;;;77.50;63.75;;;;;9.23;52.07;103145.13;2075884;27;45945;-63
2023/02/10 00:22:20;;;;;;;;;80.75;67.75;;;;;9.24;51.89;103157.50;2087092;27;46068;-64
2023/02/10 00:23:21;;;;;;;;;73.75;59.50;;;;;9.23;51.98;103150.44;2093632;27;46612;-63
2023/02/10 00:24:21;;;;;;;;;81.25;65.25;;;;;9.24;51.42;103153.97;2091507;27;46813;-63
2023/02/10 00:25:22;;;;;;;;;77.75;62.75;;;;;9.23;51.79;103150.44;2103133;27;46575;-64
2023/02/10 00:26:22;;;;;;;;;77.25;62.25;;;;;9.23;52.02;103153.06;2080771;27;46440;-64
2023/02/10 00:27:23;;;;;;;;;77.75;61.75;;;;;9.22;51.95;103153.94;2105483;27;46204;-64
2023/02/10 00:28:24;;;;;;;;;76.25;61.75;;;;;9.22;52.07;103150.41;2085309;27;46557;-64
2023/02/10 00:29:25;;;;;;;;;80.50;63.75;;;;;9.23;51.73;103149.53;2071309;28;46292;-63
2023/02/10 00:30:26;;;;;;;;;77.50;61.50;;;;;9.24;51.86;103153.97;2090051;27;46709;-65
2023/02/10 00:31:26;;;;;;;;;81.50;67.75;;;;;9.22;51.87;103139.78;2089254;27;46498;-63
2023/02/10 00:32:27;;;;;;;;;77.75;64.00;;;;;9.21;52.05;103144.19;2096931;27;46519;-65
2023/02/10 00:33:27;;;;;;;;;79.75;66.25;;;;;9.21;52.16;103144.19;2102543;27;46300;-64
2023/02/10 00:34:27;;;;;;;;;78.00;66.00;;;;;9.22;52.15;103153.94;2080268;27;46141;-64
2023/02/10 00:35:28;;;;;;;;;73.50;59.75;;;;;9.22;52.30;103148.63;2108446;27;46796;-63
2023/02/10 00:36:28;;;;;;;;;82.50;66.00;;;;;9.22;52.03;103153.03;2096644;27;45625;-63
2023/02/10 00:37:29;;;;;;;;;81.50;68.50;;;;;9.22;52.27;103146.00;2093717;27;47174;-63
2023/02/10 00:38:29;;;;;;;;;81.75;70.00;;;;;9.21;52.28;103148.59;2110198;27;46475;-64
2023/02/10 00:39:29;;;;;;;;;79.50;63.25;;;;;9.22;52.21;103145.09;2093651;27;46342;-64
2023/02/10 00:40:30;;;;;;;;;79.50;65.25;;;;;9.21;52.18;103148.59;2105640;27;45670;-63
2023/02/10 00:41:30;;;;;;;;;82.50;67.25;;;;;9.21;52.35;103149.50;2101538;27;45611;-64
2023/02/10 00:42:31;;;;;;;;;81.75;66.25;;;;;9.22;52.27;103148.63;2109181;27;46834;-63
2023/02/10 00:43:31;;;;;;;;;78.25;65.75;;;;;9.22;52.41;103145.09;2104735;28;46303;-63
2023/02/10 00:44:32;;;;;;;;;78.00;66.25;;;;;9.22;52.18;103142.44;2094688;27;46239;-64
2023/02/10 00:45:32;;;;;;;;;80.50;63.75;;;;;9.22;52.23;103143.34;2099513;27;46251;-64
2023/02/10 00:46:33;;;;;;;;;78.50;64.75;;;;;9.22;52.06;103140.69;2102846;27;46492;-63
2023/02/10 00:47:33;;;;;;;;;77.25;60.75;;;;;9.23;52.36;103141.59;2085739;27;46299;-65
2023/02/10 00:48:34;;;;;;;;;73.00;59.00;;;;;9.24;52.30;103146.91;2108030;27;46735;-64
2023/02/10 00:49:34;;;;;;;;;75.50;60.50;;;;;9.24;52.42;103143.38;2100122;27;45450;-63
2023/02/10 00:50:35;;;;;;;;;82.50;70.50;;;;;9.23;52.50;103149.53;2100697;28;46338;-62
2023/02/10 00:51:35;;;;;;;;;78.25;65.75;;;;;9.23;52.54;103139.84;2104474;28;46904;-63
2023/02/10 00:52:35;;;;;;;;;75.50;61.25;;;;;9.24;52.42;103140.72;2095742;27;46536;-64
2023/02/10 00:53:36;;;;;;;;;81.25;66.25;;;;;9.24;52.38;103140.72;2082283;27;45907;-65
2023/02/10 00:54:36;;;;;;;;;82.25;70.00;;;;;9.24;52.43;103144.25;2080114;27;45685;-65
2023/02/10 00:55:37;;;;;;;;;82.00;72.00;;;;;9.22;52.41;103148.63;2082946;27;46660;-64
2023/02/10 00:56:37;;;;;;;;;81.75;71.50;;;;;9.22;52.61;103150.41;2109386;27;46746;-64
2023/02/10 00:57:38;;;;;;;;;81.00;68.75;;;;;9.22;52.94;103151.28;2098509;27;46680;-64
2023/02/10 00:58:39;;;;;;;;;81.25;68.00;;;;;9.21;52.91;103149.50;2094625;27;45596;-65
2023/02/10 00:59:39;;;;;;;;;83.25;70.00;;;;;9.22;53.08;103153.03;2070554;27;46361;-65
2023/02/10 01:00:39;;;;;;;;;82.75;70.25;;;;;9.21;53.13;103152.16;2089433;27;46241;-65
2023/02/10 01:01:40;;;;;;;;;77.25;60.75;;;;;9.21;53.33;103152.16;2099795;27;46031;-65
2023/02/10 01:02:40;;;;;;;;;82.50;70.00;;;;;9.21;53.33;103160.09;2082247;27;46822;-65
2023/02/10 01:03:40;;;;;;;;;76.25;61.25;;;;;9.19;53.54;103145.94;2079446;27;46210;-65
2023/02/10 01:04:41;;;;;;;;;81.25;68.25;;;;;9.19;54.11;103148.56;2106396;27;46275;-63
2023/02/10 01:05:41;;;;;;;;;76.25;60.25;;;;;9.19;54.04;103147.69;2075106;27;46786;-65
2023/02/10 01:06:41;;;;;;;;;78.50;64.25;;;;;9.18;54.21;103146.78;2067663;28;46684;-64
2023/02/10 01:07:42;;;;;;;;;78.00;65.50;;;;;9.18;53.90;103144.16;2058849;28;46301;-65
2023/02/10 01:08:42;;;;;;;;;79.00;64.50;;;;;9.17;54.29;103150.31;2068924;28;46735;-64
2023/02/10 01:09:42;;;;;;;;;78.00;66.50;;;;;9.17;54.41;103155.59;2090215;28;46423;-64
2023/02/10 01:10:43;;;;;;;;;81.25;66.50;;;;;9.18;54.52;103145.91;2100604;27;46560;-64
2023/02/10 01:11:44;;;;;;;;;76.50;61.75;;;;;9.17;54.66;103149.41;2079829;27;46674;-64
2023/02/10 01:12:44;;;;;;;;;74.75;59.75;;;;;9.16;54.81;103155.56;2078118;28;45819;-63
2023/02/10 01:13:45;;;;;;;;;83.25;72.00;;;;;9.14;54.97;103152.84;2084037;28;46733;-64
2023/02/10 01:14:45;;;;;;;;;83.25;74.00;;;;;9.14;54.93;103151.09;2089220;27;47092;-64
2023/02/10 01:15:46;;;;;;;;;84.00;71.00;;;;;9.12;55.51;103158.13;2105678;27;46689;-64
2023/02/10 01:16:47;;;;;;;;;79.50;67.00;;;;;9.12;55.27;103157.22;2089373;27;46749;-64
2023/02/10 01:17:47;;;;;;;;;82.50;68.25;;;;;9.10;55.25;103154.56;2102674;27;46571;-65
2023/02/10 01:18:47;;;;;;;;;79.50;65.50;;;;;9.10;55.43;103158.94;2100438;27;45034;-64
2023/02/10 01:19:50;;;;;;;;;78.00;61.50;;;;;9.08;55.84;103155.38;2088362;27;47005;-64
2023/02/10 01:20:51;;;;;;;;;83.00;69.75;;;;;9.07;55.58;103153.59;2107758;27;46376;-64
2023/02/10 01:21:51;;;;;;;;;81.50;71.00;;;;;9.06;55.64;103154.44;2066948;28;46211;-64
2023/02/10 01:22:52;;;;;;;;;82.00;70.25;;;;;9.06;55.94;103150.06;2061650;28;46611;-65
2023/02/10 01:23:52;;;;;;;;;80.25;68.75;;;;;9.05;55.86;103153.56;2067808;28;46779;-64
2023/02/10 01:24:52;;;;;;;;;83.50;68.25;;;;;9.04;55.75;103159.72;2067762;27;46464;-65
2023/02/10 01:25:53;;;;;;;;;83.50;73.75;;;;;9.04;55.69;103151.78;2070258;28;45756;-65
2023/02/10 01:26:53;;;;;;;;;84.25;73.75;;;;;9.03;55.86;103149.97;2070511;27;46199;-64
2023/02/10 01:27:53;;;;;;;;;80.25;68.00;;;;;9.04;55.72;103158.81;2067349;28;45481;-63
2023/02/10 01:28:54;;;;;;;;;77.50;65.25;;;;;9.03;55.84;103154.38;2061749;28;46406;-63
2023/02/10 01:29:54;;;;;;;;;84.75;73.50;;;;;9.02;55.81;103164.09;2062057;28;46385;-63
2023/02/10 01:30:54;;;;;;;;;82.50;69.25;;;;;9.02;55.97;103158.78;2068374;28;45588;-63
2023/02/10 01:31:55;;;;;;;;;83.75;70.25;;;;;9.01;55.98;103151.69;2070821;28;46360;-65
2023/02/10 01:32:56;;;;;;;;;73.75;58.00;;;;;9.04;56.11;103153.53;2061839;28;46533;-62
2023/02/10 01:33:56;;;;;;;;;81.75;71.00;;;;;9.03;55.93;103155.28;2061352;28;46817;-65
2023/02/10 01:34:56;;;;;;;;;84.75;74.00;;;;;9.03;55.96;103149.09;2061556;28;45244;-64
2023/02/10 01:35:56;;;;;;;;;80.50;65.75;;;;;9.03;56.11;103157.94;2061701;28;46892;-64
2023/02/10 01:36:57;;;;;;;;;81.50;66.75;;;;;9.05;56.11;103160.63;2070355;28;46588;-63
2023/02/10 01:37:57;;;;;;;;;81.25;69.25;;;;;9.04;56.37;103157.06;2070174;27;46896;-64
2023/02/10 01:38:58;;;;;;;;;87.25;75.00;;;;;9.04;56.17;103154.41;2068585;27;46181;-65
2023/02/10 01:39:58;;;;;;;;;81.00;69.00;;;;;9.04;56.34;103151.78;2061154;28;46849;-63
2023/02/10 01:40:58;;;;;;;;;82.75;69.00;;;;;9.04;56.67;103154.41;2069658;28;48013;-63
2023/02/10 01:41:59;;;;;;;;;85.50;78.75;;;;;9.04;56.77;103148.22;2065012;28;46790;-64
2023/02/10 01:42:59;;;;;;;;;82.75;73.25;;;;;9.04;56.87;103156.19;2062536;28;46580;-65
2023/02/10 01:44:06;;;;;;;;;76.50;62.75;;;;;9.03;57.10;103151.75;2061651;28;46195;-64
2023/02/10 01:45:21;;;;;;;;;84.75;73.25;;;;;9.04;57.20;103157.06;2062140;28;46624;-65
2023/02/10 01:46:21;;;;;;;;;86.25;74.00;;;;;9.04;57.26;103153.53;2061682;28;47022;-65
2023/02/10 01:47:25;;;;;;;;;85.25;75.50;;;;;9.03;57.34;103155.28;2070120;28;46611;-66
2023/02/10 01:48:25;;;;;;;;;85.25;76.50;;;;;9.03;57.45;103157.94;2073233;28;47067;-64
2023/02/10 01:49:30;;;;;;;;;84.00;74.25;;;;;9.04;57.45;103158.81;2069615;28;46821;-65
2023/02/10 01:50:39;;;;;;;;;86.00;75.75;;;;;9.04;57.78;103162.38;2066515;27;46710;-65
2023/02/10 01:51:59;;;;;;;;;83.50;72.75;;;;;9.02;57.68;103161.44;2062052;28;46030;-65
2023/02/10 01:53:00;;;;;;;;;83.25;71.00;;;;;9.02;57.53;103163.16;2061723;27;46742;-63
2023/02/10 01:54:02;;;;;;;;;84.75;71.25;;;;;9.02;57.64;103168.47;2063677;27;46277;-64
2023/02/10 01:55:07;;;;;;;;;83.75;71.25;;;;;9.02;57.65;103161.44;2065051;28;46482;-63
2023/02/10 01:56:08;;;;;;;;;84.00;74.75;;;;;9.02;57.46;103156.16;2065535;28;46534;-65
2023/02/10 01:57:10;;;;;;;;;81.75;68.75;;;;;9.01;57.53;103156.97;2067510;28;46764;-65
2023/02/10 01:58:14;;;;;;;;;80.50;66.50;;;;;9.02;57.75;103155.22;2062010;27;45630;-65
2023/02/10 01:59:15;;;;;;;;;82.25;69.25;;;;;9.01;57.81;103162.28;2076166;27;45580;-65
2023/02/10 02:00:16;;;;;;;;;80.00;67.75;;;;;9.00;58.04;103162.25;2077817;27;45677;-65
2023/02/10 02:01:17;;;;;;;;;78.50;65.75;;;;;9.01;57.99;103164.03;2060327;28;46631;-65
2023/02/10 02:02:18;;;;;;;;;83.75;69.00;;;;;9.01;58.03;103162.28;2083102;28;46699;-64
2023/02/10 02:03:18;;;;;;;;;81.25;69.00;;;;;9.00;57.89;103162.25;2078658;27;45516;-64
2023/02/10 02:04:19;;;;;;;;;82.00;68.50;;;;;9.01;58.08;103161.38;2112869;27;46521;-64
2023/02/10 02:05:33;;;;;;;;;80.75;66.75;;;;;9.02;58.00;103160.50;2104143;27;45070;-65
2023/02/10 02:06:34;;;;;;;;;79.75;66.50;;;;;9.02;58.11;103161.44;2101802;27;46752;-64
2023/02/10 02:07:37;;;;;;;;;78.50;63.00;;;;;9.02;58.40;103155.22;2113060;27;46842;-64
2023/02/10 02:08:38;;;;;;;;;80.25;65.00;;;;;9.01;58.28;103154.31;2084342;27;46618;-64
2023/02/10 02:09:39;;;;;;;;;75.50;58.75;;;;;9.02;58.22;103155.22;2078072;27;45898;-65
2023/02/10 02:10:51;;;;;;;;;82.25;69.00;;;;;9.03;58.17;103157.03;2075113;27;46313;-63
2023/02/10 02:12:05;;;;;;;;;76.50;60.25;;;;;9.03;58.17;103157.94;2078500;27;46046;-65
2023/02/10 02:13:35;;;;;;;;;78.50;62.25;;;;;9.03;58.21;103146.44;2068926;27;45664;-64
2023/02/10 02:14:45;;;;;;;;;80.75;69.25;;;;;9.04;58.26;103156.19;2100227;27;46319;-64
2023/02/10 02:16:08;;;;;;;;;76.00;61.50;;;;;9.03;58.41;103157.03;2113204;27;45388;-64
2023/02/10 02:17:32;;;;;;;;;75.25;59.75;;;;;9.01;58.46;103151.69;2071408;27;46611;-64
2023/02/10 02:18:35;;;;;;;;;77.25;61.75;;;;;9.01;58.34;103154.31;2096830;28;46201;-63
2023/02/10 02:20:39;;;;;;;;;75.25;61.00;;;;;9.00;58.42;103157.84;2096695;28;45225;-65
2023/02/10 02:21:36;;;;;;;;;77.50;62.25;;;;;8.99;58.75;103155.16;2094104;28;46317;-64
2023/02/10 02:22:57;;;;;;;;;82.00;66.25;;;;;8.98;58.54;103158.66;2089825;28;45373;-64
2023/02/10 02:24:02;;;;;;;;;79.25;64.00;;;;;8.98;58.60;103153.38;2094779;28;46743;-65
2023/02/10 02:25:35;;;;;;;;;79.25;62.50;;;;;8.98;58.58;103151.59;2096653;28;46140;-64
2023/02/10 02:26:50;;;;;;;;;76.75;61.00;;;;;8.97;58.48;103154.22;2096773;28;46826;-64
2023/02/10 02:28:00;;;;;;;;;82.25;65.75;;;;;8.96;58.64;103155.97;2096102;28;46327;-64
2023/02/10 02:29:21;;;;;;;;;81.00;68.75;;;;;8.95;58.37;103154.19;2095138;28;46724;-64
2023/02/10 02:30:49;;;;;;;;;79.50;66.25;;;;;8.95;58.39;103154.19;2094373;28;46451;-64
2023/02/10 02:31:52;;;;;;;;;77.25;61.00;;;;;8.94;58.50;103154.16;2094720;28;46599;-65
2023/02/10 02:33:04;;;;;;;;;74.25;58.25;;;;;8.92;58.47;103148.84;2093992;28;46637;-64
2023/02/10 02:34:16;;;;;;;;;82.25;67.00;;;;;8.92;58.52;103150.59;2095822;28;47840;-63
2023/02/10 02:35:22;;;;;;;;;79.00;65.50;;;;;8.91;58.71;103152.34;2086600;28;46574;-65
2023/02/10 02:36:30;;;;;;;;;82.50;70.25;;;;;8.92;58.76;103146.19;2086630;28;46929;-64
2023/02/10 02:37:36;;;;;;;;;83.00;69.75;;;;;8.92;58.59;103151.47;2088678;28;46591;-64
2023/02/10 02:38:38;;;;;;;;;82.00;71.25;;;;;8.91;58.63;103148.81;2094420;28;46217;-63
2023/02/10 02:39:41;;;;;;;;;82.50;70.75;;;;;8.91;58.66;103140.84;2096167;28;46547;-63
2023/02/10 02:40:42;;;;;;;;;70.75;54.50;;;;;8.91;58.71;103143.50;2084957;28;46368;-64
2023/02/10 02:41:42;;;;;;;;;81.50;65.00;;;;;8.89;58.40;103140.78;2078704;28;46250;-64
2023/02/10 02:42:42;;;;;;;;;83.25;73.25;;;;;8.90;58.49;103141.72;2090057;28;45787;-64
2023/02/10 02:43:43;;;;;;;;;84.75;75.75;;;;;8.89;58.27;103139.91;2088002;28;45548;-64
2023/02/10 02:44:47;;;;;;;;;85.75;74.75;;;;;8.89;58.29;103145.19;2092519;28;46753;-65
2023/02/10 02:46:05;;;;;;;;;81.25;69.50;;;;;8.88;58.34;103146.06;2091887;28;45603;-64
2023/02/10 02:47:47;;;;;;;;;83.25;71.00;;;;;8.87;58.43;103145.16;2091847;28;46435;-64
2023/02/10 02:49:02;;;;;;;;;83.50;71.50;;;;;8.87;58.30;103139.88;2061285;28;46047;-64
2023/02/10 02:50:23;;;;;;;;;85.25;71.00;;;;;8.86;58.36;103153.97;2054089;28;47316;-63
2023/02/10 02:51:38;;;;;;;;;83.25;69.50;;;;;8.85;58.28;103153.06;2056944;28;47068;-63
2023/02/10 02:53:08;;;;;;;;;80.00;64.50;;;;;8.84;58.29;103160.97;2062079;28;45222;-63
2023/02/10 02:54:24;;;;;;;;;83.75;70.75;;;;;8.82;58.14;103157.41;2051926;28;46372;-63
2023/02/10 02:55:38;;;;;;;;;80.75;68.50;;;;;8.80;58.33;103154.72;2049818;28;46748;-65
2023/02/10 02:56:46;;;;;;;;;84.75;74.25;;;;;8.80;58.43;103156.47;2053214;28;46619;-65
2023/02/10 02:58:10;;;;;;;;;83.50;67.00;;;;;8.78;58.49;103153.78;2053940;28;47125;-64
2023/02/10 02:59:20;;;;;;;;;81.00;64.00;;;;;8.77;58.60;103159.94;2014920;28;46961;-64
2023/02/10 03:00:29;;;;;;;;;83.50;68.00;;;;;8.75;58.56;103159.00;2019294;28;46710;-63
2023/02/10 03:01:37;;;;;;;;;80.50;69.50;;;;;8.75;58.59;103159.00;2043393;28;46936;-62
2023/02/10 03:02:41;;;;;;;;;79.25;66.75;;;;;8.75;58.31;103155.44;2028428;28;46602;-64
2023/02/10 03:03:42;;;;;;;;;81.25;69.50;;;;;8.76;58.52;103166.06;2028993;28;45677;-64
2023/02/10 03:04:43;;;;;;;;;81.50;67.25;;;;;8.77;58.67;103154.66;2020415;28;46466;-63
2023/02/10 03:05:43;;;;;;;;;82.75;69.50;;;;;8.77;58.57;103153.75;2015943;28;47092;-64
2023/02/10 03:06:44;;;;;;;;;73.75;58.75;;;;;8.77;58.85;103156.41;2021125;28;46291;-65
2023/02/10 03:07:44;;;;;;;;;79.75;67.00;;;;;8.78;58.58;103156.44;2043166;28;45748;-64
2023/02/10 03:08:44;;;;;;;;;79.50;67.00;;;;;8.78;58.76;103148.50;2023978;28;46478;-63
2023/02/10 03:09:45;;;;;;;;;79.25;65.75;;;;;8.80;58.69;103154.72;2038539;28;46286;-64
2023/02/10 03:10:45;;;;;;;;;83.75;71.25;;;;;8.81;58.78;103155.63;2047269;28;46903;-63
2023/02/10 03:11:45;;;;;;;;;79.50;68.00;;;;;8.82;58.67;103152.09;2020117;28;46648;-62
2023/02/10 03:12:46;;;;;;;;;81.25;69.00;;;;;8.82;58.59;103157.41;2018441;29;46349;-63
2023/02/10 03:13:46;;;;;;;;;76.50;61.00;;;;;8.81;58.60;103151.22;2042236;28;46393;-63
2023/02/10 03:14:46;;;;;;;;;81.00;69.00;;;;;8.81;58.58;103156.50;2025197;28;46780;-63
2023/02/10 03:15:47;;;;;;;;;83.25;70.50;;;;;8.81;58.26;103147.69;2055073;28;46629;-64
2023/02/10 03:16:47;;;;;;;;;82.00;69.75;;;;;8.81;58.43;103158.25;2033918;28;46566;-63
2023/02/10 03:17:48;;;;;;;;;78.25;61.25;;;;;8.80;58.65;103154.72;2042605;28;46559;-63
2023/02/10 03:18:49;;;;;;;;;79.75;65.50;;;;;8.79;58.74;103157.34;2016980;28;46818;-63
2023/02/10 03:19:49;;;;;;;;;76.50;61.25;;;;;8.77;58.87;103156.41;2027101;28;47412;-63
2023/02/10 03:20:49;;;;;;;;;79.50;64.50;;;;;8.75;58.74;103153.69;2044868;28;46065;-63
2023/02/10 03:21:50;;;;;;;;;78.75;63.75;;;;;8.75;58.81;103155.44;2036036;28;46251;-64
2023/02/10 03:22:50;;;;;;;;;80.25;65.75;;;;;8.74;58.80;103151.91;2053702;28;46676;-64
2023/02/10 03:23:51;;;;;;;;;80.50;65.75;;;;;8.74;58.86;103148.38;2035955;28;45600;-63
2023/02/10 03:24:51;;;;;;;;;79.25;60.25;;;;;8.73;58.70;103149.22;2029614;29;46719;-64
2023/02/10 03:25:51;;;;;;;;;78.50;63.00;;;;;8.73;58.81;103149.22;2033049;28;46685;-64
2023/02/10 03:26:52;;;;;;;;;81.00;65.75;;;;;8.72;58.92;103148.34;2067645;28;46666;-64
2023/02/10 03:27:52;;;;;;;;;83.50;71.25;;;;;8.74;59.06;103156.31;2085391;28;45544;-64
2023/02/10 03:28:52;;;;;;;;;80.00;68.75;;;;;8.74;59.05;103151.00;2045589;28;46349;-64
2023/02/10 03:29:53;;;;;;;;;83.00;70.50;;;;;8.76;58.78;103163.44;2045923;28;45846;-63
2023/02/10 03:30:53;;;;;;;;;76.00;60.25;;;;;8.77;58.92;103161.72;2046436;28;46275;-65
2023/02/10 03:31:53;;;;;;;;;81.00;69.25;;;;;8.78;58.99;103161.75;2060241;27;46240;-64
2023/02/10 03:32:55;;;;;;;;;78.00;63.75;;;;;8.80;58.82;103154.72;2062234;28;46315;-63
2023/02/10 03:33:55;;;;;;;;;79.75;64.25;;;;;8.81;58.75;103158.25;2062264;28;46383;-64
2023/02/10 03:34:55;;;;;;;;;81.75;68.50;;;;;8.81;58.80;103156.50;2071098;27;46821;-63
2023/02/10 03:35:57;;;;;;;;;76.25;63.00;;;;;8.82;58.61;103160.94;2071000;27;46477;-63
2023/02/10 03:36:57;;;;;;;;;77.50;62.50;;;;;8.82;58.75;103162.69;2071008;27;46726;-63
2023/02/10 03:37:58;;;;;;;;;81.00;68.75;;;;;8.82;58.55;103153.00;2070875;27;46811;-64
2023/02/10 03:38:58;;;;;;;;;79.75;65.25;;;;;8.83;58.57;103159.19;2074571;27;46282;-64
2023/02/10 03:39:58;;;;;;;;;84.25;72.50;;;;;8.82;58.70;103160.06;2108239;27;46283;-65
2023/02/10 03:40:59;;;;;;;;;81.75;68.75;;;;;8.81;58.61;103160.91;2104863;27;46744;-65
2023/02/10 03:41:59;;;;;;;;;83.00;68.00;;;;;8.82;58.70;103165.34;2078760;28;45562;-64
2023/02/10 03:42:59;;;;;;;;;82.00;71.50;;;;;8.83;58.59;103154.78;2074001;27;46726;-62
2023/02/10 03:44:00;;;;;;;;;85.00;73.25;;;;;8.84;58.61;103167.16;2070726;27;45875;-64
2023/02/10 03:45:00;;;;;;;;;80.75;68.75;;;;;8.83;59.11;103157.44;2070805;27;46570;-64
2023/02/10 03:46:02;;;;;;;;;79.00;64.00;;;;;8.83;58.59;103160.09;2071049;28;45490;-63
2023/02/10 03:47:02;;;;;;;;;81.50;68.00;;;;;8.84;58.87;103160.97;2062433;28;45712;-62
2023/02/10 03:48:03;;;;;;;;;76.50;61.00;;;;;8.84;58.71;103163.63;2062637;28;45581;-63
2023/02/10 03:49:04;;;;;;;;;80.00;67.50;;;;;8.85;58.61;103165.41;2070873;27;46818;-62
2023/02/10 03:50:05;;;;;;;;;76.50;63.75;;;;;8.87;58.78;103168.09;2062426;28;45936;-63
2023/02/10 03:51:07;;;;;;;;;75.50;62.50;;;;;8.85;58.87;103166.31;2062125;28;46886;-62
2023/02/10 03:52:07;;;;;;;;;78.25;63.75;;;;;8.86;58.59;103159.25;2065401;28;46436;-62
2023/02/10 03:53:08;;;;;;;;;80.75;65.75;;;;;8.88;58.74;103172.53;2054075;28;46430;-63
2023/02/10 03:54:08;;;;;;;;;80.75;67.25;;;;;8.88;58.54;103161.94;2060106;28;46834;-63
2023/02/10 03:55:09;;;;;;;;;81.50;67.00;;;;;8.88;58.60;103159.28;2071129;28;46301;-63
2023/02/10 03:56:10;;;;;;;;;74.75;61.00;;;;;8.89;58.82;103163.72;2070860;27;46842;-63
2023/02/10 03:57:11;;;;;;;;;72.75;59.25;;;;;8.89;58.70;103166.38;2070990;28;46937;-63
2023/02/10 03:58:11;;;;;;;;;76.75;62.75;;;;;8.88;58.48;103161.94;2070880;28;46422;-62
2023/02/10 03:59:12;;;;;;;;;78.25;60.75;;;;;8.87;58.99;103166.34;2071034;27;46143;-64
2023/02/10 04:00:13;;;;;;;;;76.25;60.25;;;;;8.85;58.71;103163.66;2071116;27;45776;-64
2023/02/10 04:01:16;;;;;;;;;77.75;62.50;;;;;8.86;58.60;103164.56;2071434;27;47604;-63
2023/02/10 04:02:17;;;;;;;;;77.25;61.50;;;;;8.85;58.81;103168.97;2086322;27;45888;-62
2023/02/10 04:03:18;;;;;;;;;74.50;60.50;;;;;8.88;58.67;103170.78;2066171;27;46818;-63
2023/02/10 04:04:19;;;;;;;;;75.75;61.75;;;;;8.89;58.76;103166.38;2088337;27;46291;-63
2023/02/10 04:05:19;;;;;;;;;79.00;65.75;;;;;8.89;58.87;103169.03;2078054;27;46897;-62
2023/02/10 04:06:19;;;;;;;;;75.00;62.25;;;;;8.88;58.81;103167.25;2066198;27;46440;-63
2023/02/10 04:07:20;;;;;;;;;78.25;65.25;;;;;8.88;58.94;103164.59;2093528;28;46268;-64
2023/02/10 04:08:20;;;;;;;;;76.75;63.00;;;;;8.87;58.64;103162.81;2090687;27;46269;-63
2023/02/10 04:09:20;;;;;;;;;79.00;65.75;;;;;8.85;58.81;103158.38;2070579;27;45465;-64
2023/02/10 04:10:21;;;;;;;;;81.50;66.75;;;;;8.85;58.76;103163.66;2073030;27;46538;-62
2023/02/10 04:11:21;;;;;;;;;79.25;65.25;;;;;8.86;58.72;103167.19;2068576;28;46303;-63
2023/02/10 04:12:21;;;;;;;;;71.50;58.75;;;;;8.85;58.94;103165.41;2073115;27;46666;-64
2023/02/10 04:13:22;;;;;;;;;78.00;63.00;;;;;8.84;59.07;103161.88;2079055;27;46791;-63
2023/02/10 04:14:22;;;;;;;;;76.00;61.50;;;;;8.84;59.31;103159.22;2071534;28;46303;-62
2023/02/10 04:15:23;;;;;;;;;72.25;58.50;;;;;8.85;59.11;103162.75;2094366;27;46066;-64
2023/02/10 04:16:27;;;;;;;;;76.75;61.50;;;;;8.85;59.02;103162.75;2077719;27;46762;-63
2023/02/10 04:17:27;;;;;;;;;73.25;59.25;;;;;8.85;58.86;103165.41;2109610;27;46557;-65
2023/02/10 04:18:27;;;;;;;;;76.50;60.75;;;;;8.84;58.99;103166.28;2088832;27;46322;-64
2023/02/10 04:19:28;;;;;;;;;74.50;59.00;;;;;8.85;59.06;103163.66;2094660;27;45921;-65
2023/02/10 04:20:28;;;;;;;;;71.50;57.00;;;;;8.85;59.05;103160.13;2101997;28;46501;-63
2023/02/10 04:21:28;;;;;;;;;74.50;60.00;;;;;8.85;59.08;103160.13;2083077;28;46360;-63
2023/02/10 04:22:29;;;;;;;;;73.75;57.75;;;;;8.84;59.14;103161.88;2105432;27;46617;-64
2023/02/10 04:23:29;;;;;;;;;72.50;56.75;;;;;8.83;59.15;103159.19;2074784;27;46037;-64
2023/02/10 04:24:30;;;;;;;;;68.50;54.75;;;;;8.82;59.21;103158.31;2075976;27;46410;-64
2023/02/10 04:25:30;;;;;;;;;79.00;62.25;;;;;8.82;59.05;103160.94;2083897;27;46872;-62
2023/02/10 04:26:30;;;;;;;;;76.50;59.50;;;;;8.82;59.23;103160.94;2097296;27;45560;-63
2023/02/10 04:27:31;;;;;;;;;70.00;56.00;;;;;8.82;59.15;103165.34;2096295;27;46335;-63
2023/02/10 04:28:31;;;;;;;;;76.00;60.25;;;;;8.81;59.20;103167.09;2080830;27;46815;-64
2023/02/10 04:29:33;;;;;;;;;75.25;59.50;;;;;8.82;59.08;103165.34;2087083;27;46830;-62
2023/02/10 04:30:33;;;;;;;;;72.00;58.25;;;;;8.82;59.29;103165.34;2086456;27;46896;-64
2023/02/10 04:31:34;;;;;;;;;72.00;58.00;;;;;8.83;59.33;103173.31;2069813;27;46714;-63
2023/02/10 04:32:34;;;;;;;;;73.50;60.50;;;;;8.83;59.08;103170.69;2080443;27;45902;-63
2023/02/10 04:33:34;;;;;;;;;72.25;58.25;;;;;8.84;59.22;103168.91;2090521;27;46268;-64
2023/02/10 04:34:35;;;;;;;;;75.50;59.00;;;;;8.84;59.15;103160.97;2097242;27;46144;-63
2023/02/10 04:35:35;;;;;;;;;76.00;60.00;;;;;8.84;59.21;103175.13;2090017;27;46299;-63
2023/02/10 04:36:36;;;;;;;;;71.50;58.00;;;;;8.84;59.06;103177.75;2112319;27;46239;-64
2023/02/10 04:37:36;;;;;;;;;74.75;60.00;;;;;8.84;59.22;103169.81;2103726;27;46668;-63
2023/02/10 04:38:36;;;;;;;;;78.00;60.50;;;;;8.84;59.24;103174.22;2100837;27;45195;-64
2023/02/10 04:39:36;;;;;;;;;76.50;60.75;;;;;8.83;58.93;103181.28;2104508;27;46402;-64
2023/02/10 04:40:39;;;;;;;;;73.25;59.25;;;;;8.81;58.92;103174.16;2070514;27;46230;-64
2023/02/10 04:41:39;;;;;;;;;75.75;60.00;;;;;8.80;59.11;103178.56;2070418;27;46602;-66
2023/02/10 04:42:40;;;;;;;;;73.75;59.50;;;;;8.79;59.40;103179.41;2095382;27;46370;-64
2023/02/10 04:43:40;;;;;;;;;75.25;61.75;;;;;8.76;59.10;103184.59;2104259;27;46906;-65
2023/02/10 04:44:40;;;;;;;;;75.25;60.50;;;;;8.75;59.13;103200.47;2070841;28;46283;-65
2023/02/10 04:45:41;;;;;;;;;74.75;59.50;;;;;8.75;58.92;103188.13;2079954;27;46334;-65
2023/02/10 04:46:41;;;;;;;;;73.25;57.25;;;;;8.76;59.06;103196.94;2103465;28;46616;-64
2023/02/10 04:47:41;;;;;;;;;72.75;58.25;;;;;8.77;59.01;103194.38;2096507;28;46644;-63
2023/02/10 04:48:42;;;;;;;;;76.00;58.50;;;;;8.79;59.02;103191.75;2103497;27;46681;-64
2023/02/10 04:49:42;;;;;;;;;75.50;59.75;;;;;8.80;59.11;103197.09;2080249;27;46330;-65